Latest Weather Observations for Maria Island

IDT60801

Issued at 9:31 am EDT Wednesday 24 October 2018 (issued every 10 minutes, with the page automatically refreshed every 10 minutes)

About weather observations | Map of weather stations | Latest weather observations for TAS | Other Formats
Station Details ID: 092124 Name: MARIA ISLAND (POINT LESUEUR) Lat: -42.66 Lon: 148.02 Height: 28.0 m
Data from the previous 72 hours. | See also: Recent months at Maria Island
Date/Time
EDT
Temp
°C
App
Temp
°C
Dew
Point
°C
Rel
Hum
%
Delta-T
°C
Wind Press
QNH
hPa
Press
MSL
hPa
Rain since
9am
mm
Dir  Spd
km/h
Gust
km/h
Spd
kts
Gust
kts
24/09:30am 11.0 7.5 1.3 51 4.0 W 9 15 5 8 1021.2 1021.2 0.0
24/09:00am 10.3 6.5 1.7 55 3.6 W 11 15 6 8 1021.0 1021.0 0.0
24/08:30am 9.6 5.8 1.5 57 3.4 WNW 11 20 6 11 1020.6 1020.6 0.0
24/08:00am 9.2 5.0 1.6 59 3.1 W 13 19 7 10 1020.3 1020.3 0.0
24/07:30am 8.4 5.1 2.2 65 2.6 W 9 17 5 9 1019.9 1019.9 0.0
24/07:00am 7.6 3.4 1.9 67 2.3 W 13 17 7 9 1019.3 1019.3 0.0
24/06:30am 7.3 2.4 2.0 69 2.2 W 17 19 9 10 1018.8 1018.8 0.0
24/06:00am 7.2 2.3 2.3 71 2.0 W 17 20 9 11 1018.3 1018.3 0.0
24/05:30am 7.6 1.7 1.7 66 2.4 W 22 28 12 15 1017.8 1017.8 0.0
24/05:00am 7.9 2.3 1.5 64 2.6 W 20 24 11 13 1017.4 1017.4 0.0
24/04:30am 8.0 1.4 2.0 66 2.5 W 26 33 14 18 1017.1 1017.1 0.0
24/04:00am 7.8 1.5 1.6 65 2.5 W 24 30 13 16 1016.8 1016.8 0.0
24/03:30am 7.7 2.4 1.8 66 2.4 WNW 19 24 10 13 1016.8 1016.8 0.0
24/03:00am 8.1 3.1 1.3 62 2.8 WNW 17 24 9 13 1016.6 1016.6 0.0
24/02:30am 8.4 2.5 1.6 62 2.8 W 22 28 12 15 1016.3 1016.3 0.0
24/02:00am 8.4 4.1 1.1 60 3.0 W 13 15 7 8 1016.3 1016.3 0.0
24/01:30am 8.7 3.8 1.8 62 2.9 WNW 17 20 9 11 1016.1 1016.1 0.0
24/01:00am 9.0 5.1 1.2 58 3.2 WNW 11 19 6 10 1016.1 1016.1 0.0
24/12:30am 9.3 5.0 1.0 56 3.4 W 13 20 7 11 1016.1 1016.1 0.0
24/12:00am 9.9 4.8 0.5 52 3.8 W 17 24 9 13 1015.8 1015.8 0.0
 
Date/Time
EDT
Temp
°C
App
Temp
°C
Dew
Point
°C
Rel
Hum
%
Delta-T
°C
Wind Press
QNH
hPa
Press
MSL
hPa
Rain since
9am
mm
Dir  Spd
km/h
Gust
km/h
Spd
kts
Gust
kts
23/11:30pm 9.5 4.2 2.1 60 3.1 W 19 20 10 11 1015.6 1015.6 0.0
23/11:00pm 9.8 6.1 2.2 59 3.2 W 11 13 6 7 1015.2 1015.2 0.0
23/10:30pm 10.5 5.0 2.1 56 3.6 WNW 20 24 11 13 1014.6 1014.6 0.0
23/10:00pm 11.0 3.3 3.3 59 3.4 W 33 41 18 22 1014.1 1014.1 0.0
23/09:31pm 12.0 6.6 2.2 51 4.2 WSW 20 52 11 28 1012.9 1012.9 0.0
23/09:30pm 12.0 7.2 2.5 52 4.1 WSW 17 44 9 24 1013.2 1013.2 0.0
23/09:00pm 12.0 5.6 0.8 46 4.7 WSW 24 35 13 19 1013.0 1013.0 0.0
23/08:30pm 12.3 7.0 1.9 49 4.5 WSW 19 28 10 15 1012.5 1012.5 0.0
23/08:00pm 13.1 8.2 1.8 46 4.9 W 17 24 9 13 1011.7 1011.7 0.0
23/07:30pm 13.6 9.5 2.5 47 4.9 W 13 26 7 14 1011.0 1011.0 0.0
23/07:00pm 14.1 10.0 2.0 44 5.3 WNW 13 20 7 11 1010.4 1010.4 0.0
23/06:30pm 14.5 7.0 3.3 47 5.1 WSW 32 41 17 22 1009.8 1009.8 0.0
23/06:15pm 14.9 6.9 3.7 47 5.1 WSW 35 54 19 29 1009.2 1009.2 0.0
23/06:00pm 16.1 8.2 4.5 46 5.5 WSW 35 48 19 26 1008.8 1008.8 0.0
23/05:51pm 16.5 12.1 4.5 45 5.7 WSW 17 46 9 25 1008.5 1008.5 0.0
23/05:30pm 14.7 13.0 8.2 65 3.3 E 7 15 4 8 1008.4 1008.4 0.0
23/05:00pm 14.3 11.5 8.5 68 2.9 ESE 13 22 7 12 1008.2 1008.2 0.0
23/04:30pm 14.3 8.7 8.7 69 2.8 SE 28 39 15 21 1007.7 1007.7 0.0
23/04:00pm 16.0 11.7 9.2 64 3.5 SSE 22 39 12 21 1007.1 1007.1 0.0
23/03:59pm 16.5 12.5 9.0 61 3.9 SSE 20 39 11 21 1007.0 1007.0 0.0
23/03:30pm 17.1 13.5 8.3 56 4.5 SE 17 20 9 11 1006.5 1006.5 0.0
23/03:00pm 18.2 14.9 9.5 57 4.6 SSE 17 24 9 13 1006.1 1006.1 0.0
23/02:30pm 18.0 15.8 9.4 57 4.5 NNW 11 15 6 8 1006.2 1006.2 0.0
23/02:00pm 17.2 12.6 9.6 61 4.0 NNW 24 32 13 17 1006.0 1006.0 0.0
23/01:30pm 17.4 13.5 10.8 65 3.5 NNW 22 28 12 15 1006.1 1006.1 0.0
23/01:00pm 17.2 12.1 10.6 65 3.5 NNW 28 35 15 19 1006.2 1006.2 0.0
23/12:30pm 18.4 13.2 11.5 64 3.8 NNW 30 35 16 19 1006.1 1006.1 0.0
23/12:00pm 17.5 12.9 11.1 66 3.5 NNW 26 30 14 16 1006.1 1006.1 0.0
23/11:30am 15.9 10.9 10.9 72 2.7 NNW 28 33 15 18 1006.4 1006.4 0.0
23/11:00am 15.2 9.1 10.4 73 2.5 NW 33 41 18 22 1007.0 1007.0 0.0
23/10:30am 15.2 11.6 10.4 73 2.5 NNW 20 26 11 14 1007.2 1007.2 0.0
23/10:00am 15.2 9.2 10.0 71 2.7 NW 32 39 17 21 1007.2 1007.2 0.0
23/09:30am 15.2 9.0 10.0 71 2.7 NW 33 39 18 21 1007.0 1007.0 0.0
23/09:00am 16.3 11.7 9.5 64 3.5 NNW 24 35 13 19 1007.1 1007.1 0.0
23/08:30am 16.6 11.4 8.8 60 4.0 N 26 35 14 19 1006.9 1006.9 0.0
23/08:00am 16.4 11.2 8.9 61 3.9 N 26 39 14 21 1006.2 1006.2 0.0
23/07:30am 15.9 10.1 9.6 66 3.3 N 30 39 16 21 1005.9 1005.9 0.0
23/07:00am 16.2 8.7 9.4 64 3.5 N 39 44 21 24 1006.1 1006.1 0.0
23/06:30am 15.6 9.3 9.7 68 3.1 N 33 39 18 21 1005.1 1005.1 0.0
23/06:00am 15.2 7.8 10.0 71 2.7 N 39 44 21 24 1005.3 1005.3 0.0
23/05:30am 15.3 8.5 9.2 67 3.1 N 35 43 19 23 1005.3 1005.3 0.0
23/05:00am 14.8 8.6 9.2 69 2.9 NNW 32 37 17 20 1005.9 1005.9 0.0
23/04:30am 14.8 8.4 9.2 69 2.9 NNW 33 39 18 21 1005.7 1005.7 0.0
23/04:00am 14.9 7.2 8.8 67 3.1 N 39 44 21 24 1005.2 1005.2 0.0
23/03:30am 14.8 7.2 9.2 69 2.9 N 39 44 21 24 1005.4 1005.4 0.0
23/03:00am 15.0 6.7 9.4 69 2.9 N 43 50 23 27 1006.1 1006.1 0.0
23/02:30am 15.1 6.3 9.5 69 2.9 N 46 52 25 28 1006.2 1006.2 0.0
23/02:00am 15.0 7.2 9.6 70 2.8 N 41 48 22 26 1006.7 1006.7 0.0
23/01:30am 15.0 7.1 9.4 69 2.9 N 41 48 22 26 1006.9 1006.9 0.0
23/01:00am 15.3 6.7 9.0 66 3.2 N 44 48 24 26 1007.3 1007.3 0.0
23/12:30am 15.6 7.0 8.1 61 3.8 NNW 43 50 23 27 1007.2 1007.2 0.0
23/12:00am 15.6 8.2 8.4 62 3.7 N 37 50 20 27 1007.2 1007.2 0.0
 
Date/Time
EDT
Temp
°C
App
Temp
°C
Dew
Point
°C
Rel
Hum
%
Delta-T
°C
Wind Press
QNH
hPa
Press
MSL
hPa
Rain since
9am
mm
Dir  Spd
km/h
Gust
km/h
Spd
kts
Gust
kts
22/11:30pm 15.9 7.3 8.2 60 3.9 N 43 52 23 28 1007.2 1007.2 0.0
22/11:00pm 16.2 7.5 7.7 57 4.3 N 43 50 23 27 1007.1 1007.1 0.0
22/10:30pm 16.3 8.1 8.0 58 4.2 N 41 46 22 25 1007.3 1007.3 0.0
22/10:00pm 16.1 8.4 8.8 62 3.8 N 39 44 21 24 1007.4 1007.4 0.0
22/09:30pm 16.1 8.9 9.1 63 3.6 N 37 43 20 23 1007.3 1007.3 0.0
22/09:00pm 16.6 9.4 9.1 61 3.9 N 37 43 20 23 1007.4 1007.4 0.0
22/08:30pm 16.6 9.9 9.5 63 3.7 N 35 43 19 23 1007.2 1007.2 0.0
22/08:24pm 16.6 12.7 9.5 63 3.7 N 20 37 11 20 1007.2 1007.2 0.0
22/08:00pm 16.6 14.1 9.8 64 3.6 N 13 17 7 9 1007.4 1007.4 0.0
22/07:31pm 17.8 11.4 8.6 55 4.7 N 32 50 17 27 1007.0 1007.0 0.0
22/07:30pm 17.9 11.3 8.7 55 4.8 N 33 50 18 27 1006.9 1006.9 0.0
22/07:00pm 18.1 11.6 8.9 55 4.8 N 33 41 18 22 1006.0 1006.0 0.0
22/06:30pm 18.3 11.3 8.6 53 5.0 N 35 44 19 24 1005.8 1005.8 0.0
22/06:00pm 17.8 11.5 9.7 59 4.3 N 33 41 18 22 1006.1 1006.1 0.0
22/05:30pm 18.2 13.3 10.1 59 4.3 N 26 32 14 17 1006.3 1006.3 0.0
22/05:00pm 18.1 13.1 9.5 57 4.5 NNE 26 33 14 18 1006.3 1006.3 0.0
22/04:30pm 18.0 14.0 9.1 56 4.6 NNE 20 26 11 14 1006.6 1006.6 0.0
22/04:00pm 18.2 14.8 9.0 55 4.8 N 17 22 9 12 1006.8 1006.8 0.0
22/03:30pm 18.1 13.4 9.2 56 4.7 NNE 24 30 13 16 1006.8 1006.8 0.0
22/03:00pm 17.7 12.2 9.3 58 4.4 N 28 33 15 18 1007.3 1007.3 0.0
22/02:30pm 17.6 11.4 10.2 62 3.9 N 33 37 18 20 1007.6 1007.6 0.0
22/02:00pm 17.6 12.0 10.2 62 3.9 N 30 37 16 20 1008.1 1008.1 0.0
22/01:30pm 17.7 14.0 10.3 62 3.9 N 20 28 11 15 1008.6 1008.6 0.0
22/01:00pm 17.4 13.8 9.8 61 4.0 N 19 26 10 14 1008.8 1008.8 0.0
22/12:30pm 17.0 12.5 9.9 63 3.7 N 24 30 13 16 1009.0 1009.0 0.0
22/12:00pm 16.9 11.6 9.8 63 3.7 N 28 35 15 19 1009.1 1009.1 0.0
22/11:30am 15.9 10.4 10.4 70 2.9 N 30 39 16 21 1009.1 1009.1 0.0
22/11:00am 16.6 12.5 10.2 66 3.4 N 22 28 12 15 1009.8 1009.8 0.0
22/10:30am 15.8 11.5 10.6 71 2.8 N 24 28 13 15 1010.1 1010.1 0.0
22/10:00am 15.4 10.6 10.4 72 2.6 N 26 28 14 15 1010.6 1010.6 0.0
22/09:30am 14.6 11.0 10.4 76 2.2 N 20 24 11 13 1011.3 1011.3 0.0
22/09:00am 14.7 11.7 10.7 77 2.1 N 17 20 9 11 1011.4 1011.4 0.0
22/08:30am 13.3 9.3 10.3 82 1.6 N 22 24 12 13 1011.5 1011.5 0.0
22/08:00am 13.0 8.3 10.5 85 1.3 NNW 26 30 14 16 1011.3 1011.3 0.0
22/07:30am 11.7 7.1 9.8 88 1.0 NNW 24 28 13 15 1011.2 1011.2 0.0
22/07:00am 11.9 7.8 10.1 89 0.9 NNW 22 26 12 14 1011.2 1011.2 0.0
22/06:30am 11.7 8.5 10.1 90 0.8 N 17 19 9 10 1011.4 1011.4 0.0
22/06:00am 11.6 8.8 10.0 90 0.8 NNW 15 19 8 10 1011.6 1011.6 0.0
22/05:30am 12.4 8.1 10.6 89 0.9 N 24 28 13 15 1011.5 1011.5 0.0
22/05:00am 12.5 8.2 10.6 88 1.0 N 24 26 13 14 1011.5 1011.5 0.0
22/04:30am 13.0 9.4 10.5 85 1.3 N 20 26 11 14 1011.8 1011.8 0.0
22/04:00am 12.7 9.9 10.1 84 1.3 NNE 15 17 8 9 1012.1 1012.1 0.0
22/03:30am 13.0 10.3 10.2 83 1.4 NNE 15 17 8 9 1012.3 1012.3 0.0
22/03:00am 13.1 10.7 10.1 82 1.5 NNE 13 17 7 9 1012.5 1012.5 0.0
22/02:30am 13.0 11.0 10.2 83 1.4 NNE 11 13 6 7 1012.6 1012.6 0.0
22/02:00am 13.0 11.0 10.2 83 1.4 NNE 11 13 6 7 1012.7 1012.7 0.0
22/01:30am 12.8 11.2 10.3 85 1.3 NNE 9 11 5 6 1013.3 1013.3 0.0
22/01:00am 12.0 10.8 9.4 84 1.3 NNE 6 7 3 4 1013.7 1013.7 0.0
22/12:30am 12.0 10.6 9.4 84 1.3 NE 7 7 4 4 1014.0 1014.0 0.0
22/12:00am 12.6 11.8 9.8 83 1.4 N 4 6 2 3 1014.3 1014.3 0.0
 
Date/Time
EDT
Temp
°C
App
Temp
°C
Dew
Point
°C
Rel
Hum
%
Delta-T
°C
Wind Press
QNH
hPa
Press
MSL
hPa
Rain since
9am
mm
Dir  Spd
km/h
Gust
km/h
Spd
kts
Gust
kts
21/11:30pm 12.2 11.0 9.6 84 1.3 NNE 6 7 3 4 1014.5 1014.5 0.0
21/11:00pm 11.4 9.8 8.6 83 1.4 ENE 7 7 4 4 1014.6 1014.6 0.0
21/10:30pm 11.8 9.5 9.0 83 1.4 NE 11 13 6 7 1014.7 1014.7 0.0
21/10:00pm 11.7 9.7 8.6 81 1.5 NE 9 11 5 6 1014.7 1014.7 0.0
21/09:30pm 12.6 10.0 9.2 80 1.7 NNE 13 15 7 8 1014.8 1014.8 0.0
21/09:00pm 12.7 10.1 9.2 79 1.8 NNE 13 15 7 8 1014.7 1014.7 0.0
21/08:30pm 12.9 10.3 9.2 78 1.9 NNE 13 17 7 9 1014.8 1014.8 0.0
21/08:00pm 13.1 10.1 9.2 77 2.0 NNE 15 19 8 10 1014.6 1014.6 0.0
21/07:30pm 13.4 9.6 9.1 75 2.2 NNE 19 22 10 12 1014.3 1014.3 0.0
21/07:00pm 13.8 10.4 9.0 73 2.4 N 17 20 9 11 1014.1 1014.1 0.0
21/06:30pm 14.6 13.4 8.1 65 3.3 N 4 9 2 5 1013.8 1013.8 0.0
21/06:00pm 15.1 13.3 8.1 63 3.5 NNE 7 13 4 7 1013.8 1013.8 0.0
21/05:30pm 15.2 13.3 7.7 61 3.7 NNW 7 11 4 6 1013.8 1013.8 0.0
21/05:00pm 15.5 13.0 8.0 61 3.8 NNW 11 15 6 8 1013.8 1013.8 0.0
21/04:30pm 16.1 13.7 8.6 61 3.8 NNW 11 19 6 10 1013.9 1013.9 0.0
21/04:00pm 15.1 11.2 7.2 59 3.9 ESE 17 20 9 11 1013.9 1013.9 0.0
21/03:30pm 15.5 12.1 7.8 60 3.9 ESE 15 19 8 10 1014.0 1014.0 0.0
21/03:00pm 14.9 11.0 9.3 69 2.9 E 20 26 11 14 1014.2 1014.2 0.0
21/02:30pm 14.6 10.2 8.8 68 2.9 ESE 22 26 12 14 1014.4 1014.4 0.0
21/02:00pm 15.2 10.5 7.7 61 3.7 ESE 22 28 12 15 1014.5 1014.5 0.0
21/01:30pm 14.8 9.3 6.1 56 4.2 ESE 24 28 13 15 1014.6 1014.6 0.0
21/01:00pm 14.8 11.9 6.6 58 4.0 ESE 11 17 6 9 1014.9 1014.9 0.0
21/12:30pm 14.4 12.3 6.5 59 3.8 SSW 7 11 4 6 1015.4 1015.4 0.0
21/12:00pm 15.5 13.3 6.2 54 4.5 N 7 9 4 5 1015.6 1015.6 0.0
21/11:30am 14.7 12.0 5.8 55 4.2 N 9 11 5 6 1016.0 1016.0 0.0
21/11:00am 14.6 12.2 5.1 53 4.5 N 7 9 4 5 1016.5 1016.5 0.0
21/10:30am 13.9 10.7 6.7 62 3.5 N 13 15 7 8 1016.9 1016.9 0.0
21/10:00am 13.4 11.6 7.2 66 3.0 NNW 6 7 3 4 1017.0 1017.0 0.0

Other Formats:

Comma delimited format used in spreadsheet applications
http://www.bom.gov.au/fwo/IDT60801/IDT60801.95988.axf

JavaScript Object Notation format (JSON) in row-major order
http://www.bom.gov.au/fwo/IDT60801/IDT60801.95988.json